createdAt,value
2022-08-05T00:02:27.512Z,101619.34
2022-08-05T00:04:56.168Z,101625.16
2022-08-05T00:07:59.643Z,101620.75
2022-08-05T00:10:10.252Z,101624.84
2022-08-05T00:15:57.667Z,101633.44
2022-08-05T00:18:05.099Z,101631.47
2022-08-05T00:20:31.640Z,101633.44
2022-08-05T00:23:02.482Z,101640.88
2022-08-05T00:25:46.029Z,101646.16
2022-08-05T00:28:13.423Z,101640.88
2022-08-05T00:30:41.083Z,101648.00
2022-08-05T00:34:41.985Z,101644.72
2022-08-05T00:36:15.132Z,101642.78
2022-08-05T00:38:44.258Z,101639.53
2022-08-05T00:41:11.926Z,101637.28
2022-08-05T00:43:47.192Z,101637.28
2022-08-05T00:46:16.217Z,101636.47
2022-08-05T00:48:50.657Z,101637.28
2022-08-05T00:51:50.433Z,101633.72
2022-08-05T00:54:06.172Z,101644.53
2022-08-05T00:56:32.915Z,101636.78
2022-08-05T00:59:00.244Z,101641.47
2022-08-05T01:01:48.303Z,101631.56
2022-08-05T01:04:15.825Z,101637.91
2022-08-05T01:06:46.746Z,101646.97
2022-08-05T01:09:17.274Z,101648.09
2022-08-05T01:11:49.652Z,101661.84
2022-08-05T01:14:41.805Z,101657.47
2022-08-05T01:21:01.784Z,101673.97
2022-08-05T01:23:57.994Z,101676.72
2022-08-05T01:26:30.125Z,101670.41
2022-08-05T01:29:14.101Z,101682.22
2022-08-05T01:31:51.544Z,101684.97
2022-08-05T01:34:27.980Z,101686.91
2022-08-05T01:37:02.818Z,101685.78
2022-08-05T01:39:46.750Z,101688.34
2022-08-05T01:42:17.270Z,101688.66
2022-08-05T01:44:54.386Z,101675.09
2022-08-05T01:47:24.356Z,101665.22
2022-08-05T01:50:08.456Z,101656.47
2022-08-05T01:52:44.089Z,101660.34
2022-08-05T01:55:14.690Z,101661.97
2022-08-05T01:58:11.868Z,101665.84
2022-08-05T02:00:34.743Z,101654.03
2022-08-05T02:03:24.350Z,101645.13
2022-08-05T02:05:59.800Z,101641.91
2022-08-05T02:08:30.755Z,101645.13
2022-08-05T02:11:11.966Z,101645.78
2022-08-05T02:13:53.362Z,101646.59
2022-08-05T02:16:38.901Z,101639.47
2022-08-05T02:19:34.176Z,101635.59
2022-08-05T02:22:25.512Z,101634.78
2022-08-05T02:24:55.811Z,101640.28
2022-08-05T02:27:29.996Z,101638.34
2022-08-05T02:30:12.492Z,101635.06
2022-08-05T02:32:42.484Z,101642.22
2022-08-05T02:35:14.527Z,101633.44
2022-08-05T02:37:53.833Z,101627.09
2022-08-05T02:40:22.999Z,101625.19
2022-08-05T02:42:54.028Z,101630.69
2022-08-05T02:45:23.849Z,101640.84
2022-08-05T02:48:06.505Z,101637.28
2022-08-05T02:50:38.210Z,101639.53
2022-08-05T02:53:11.753Z,101655.84
2022-08-05T02:55:52.089Z,101657.44
2022-08-05T02:58:23.198Z,101659.91
2022-08-05T03:00:56.607Z,101657.16
2022-08-05T03:03:23.844Z,101672.53
2022-08-05T03:06:56.736Z,101661.84
2022-08-05T03:08:42.543Z,101669.59
2022-08-05T03:11:54.512Z,101669.59
2022-08-05T03:14:13.827Z,101669.59
2022-08-05T03:16:41.445Z,101664.91
2022-08-05T03:19:16.987Z,101669.28
2022-08-05T03:21:49.329Z,101670.41
2022-08-05T03:24:29.550Z,101670.41
2022-08-05T03:26:57.368Z,101672.34
2022-08-05T03:29:24.268Z,101678.66
2022-08-05T03:32:11.542Z,101687.72
2022-08-05T03:34:38.525Z,101686.09
2022-08-05T03:37:06.874Z,101684.47
2022-08-05T03:39:38.059Z,101681.72
2022-08-05T03:42:13.856Z,101685.28
2022-08-05T03:44:42.548Z,101677.34
2022-08-05T03:47:09.081Z,101674.59
2022-08-05T03:49:51.526Z,101680.91
2022-08-05T03:52:50.074Z,101672.94
2022-08-05T03:56:04.749Z,101682.84
2022-08-05T03:58:04.230Z,101675.69
2022-08-05T04:00:32.420Z,101667.75
2022-08-05T04:03:02.932Z,101671.31
2022-08-05T04:05:34.646Z,101670.50
2022-08-05T04:08:29.928Z,101660.63
2022-08-05T04:10:53.468Z,101663.38
2022-08-05T04:13:21.801Z,101663.38
2022-08-05T04:15:52.799Z,101649.03
2022-08-05T04:18:32.198Z,101657.38
2022-08-05T04:21:01.893Z,101660.34
2022-08-05T04:24:05.184Z,101655.84
2022-08-05T04:26:17.556Z,101657.03
2022-08-05T04:28:50.776Z,101657.63
2022-08-05T04:31:18.310Z,101651.94
2022-08-05T04:33:54.438Z,101655.59
2022-08-05T04:36:46.610Z,101659.75
2022-08-05T04:39:18.203Z,101662.88
2022-08-05T04:41:45.700Z,101655.28
2022-08-05T04:44:12.693Z,101660.84
2022-08-05T04:46:39.234Z,101655.66
2022-08-05T04:49:12.201Z,101664.22
2022-08-05T04:51:41.204Z,101667.84
2022-08-05T04:54:09.743Z,101656.34
2022-08-05T04:56:36.865Z,101653.06
2022-08-05T04:59:21.807Z,101656.13
2022-08-05T05:02:07.177Z,101659.47
2022-08-05T05:04:38.732Z,101665.56
2022-08-05T05:07:15.928Z,101660.72
2022-08-05T05:09:44.483Z,101665.94
2022-08-05T05:12:11.549Z,101668.97
2022-08-05T05:14:38.379Z,101669.28
2022-08-05T05:17:22.769Z,101669.56
2022-08-05T05:19:53.342Z,101668.53
2022-08-05T05:22:24.283Z,101671.28
2022-08-05T05:24:59.790Z,101672.41
2022-08-05T05:27:45.716Z,101673.81
2022-08-05T05:30:29.203Z,101678.78
2022-08-05T05:33:00.066Z,101679.06
2022-08-05T05:35:29.150Z,101687.31
2022-08-05T05:38:09.126Z,101683.53
2022-08-05T05:40:42.411Z,101693.09
2022-08-05T05:43:11.832Z,101696.44
2022-08-05T05:45:48.101Z,101702.50
2022-08-05T05:48:16.155Z,101694.59
2022-08-05T05:50:44.508Z,101701.25
2022-08-05T05:53:22.138Z,101709.50
2022-08-05T05:55:52.428Z,101714.97
2022-08-05T05:58:31.639Z,101716.91
2022-08-05T06:01:02.473Z,101708.69
2022-08-05T06:04:00.732Z,101701.03
2022-08-05T06:06:33.045Z,101713.94
2022-08-05T06:09:07.528Z,101708.44
2022-08-05T06:11:34.573Z,101711.72
2022-08-05T06:14:02.189Z,101711.19
2022-08-05T06:16:32.731Z,101704.91
2022-08-05T06:19:02.052Z,101715.34
2022-08-05T06:21:35.865Z,101716.16
2022-08-05T06:24:07.798Z,101725.50
2022-08-05T06:29:25.329Z,101718.69
2022-08-05T06:34:53.543Z,101725.00
2022-08-05T06:37:23.461Z,101723.56
2022-08-05T06:40:10.636Z,101728.03
2022-08-05T06:42:39.865Z,101731.56
2022-08-05T06:45:08.455Z,101731.34
2022-08-05T06:48:36.778Z,101733.59
2022-08-05T06:50:23.067Z,101738.25
2022-08-05T06:52:58.987Z,101741.00
2022-08-05T06:55:31.384Z,101749.22
2022-08-05T06:58:30.067Z,101737.44
2022-08-05T07:00:50.819Z,101753.91
2022-08-05T07:03:17.523Z,101753.91
2022-08-05T07:05:46.458Z,101754.19
2022-08-05T07:08:13.533Z,101764.88
2022-08-05T07:10:52.280Z,101756.66
2022-08-05T07:13:57.611Z,101767.09
2022-08-05T07:17:59.113Z,101764.03
2022-08-05T07:25:54.378Z,101778.06
2022-08-05T07:28:09.709Z,101785.19
2022-08-05T07:30:39.867Z,101783.56
2022-08-05T07:33:16.204Z,101783.84
2022-08-05T07:36:04.593Z,101794.84
2022-08-05T07:38:43.561Z,101796.75
2022-08-05T07:42:06.798Z,101808.00
2022-08-05T07:44:04.344Z,101810.47
2022-08-05T07:49:18.260Z,101814.31
2022-08-05T07:51:53.269Z,101823.59
2022-08-05T07:54:31.147Z,101825.53
2022-08-05T07:57:17.627Z,101826.63
2022-08-05T07:59:51.481Z,101831.00
2022-08-05T08:04:59.211Z,101834.06
2022-08-05T08:07:28.499Z,101848.59
2022-08-05T08:09:55.424Z,101846.66
2022-08-05T08:12:37.172Z,101848.88
2022-08-05T08:15:15.364Z,101852.78
2022-08-05T08:17:46.148Z,101860.94
2022-08-05T08:20:44.014Z,101862.06
2022-08-05T08:23:07.604Z,101859.31
2022-08-05T08:25:59.830Z,101871.94
2022-08-05T08:28:35.811Z,101879.09
2022-08-05T08:31:04.434Z,101884.06
2022-08-05T08:33:38.189Z,101887.63
2022-08-05T08:36:29.788Z,101886.28
2022-08-05T08:38:57.014Z,101891.50
2022-08-05T08:41:51.255Z,101894.00
2022-08-05T08:45:16.625Z,101892.88
2022-08-05T08:47:47.149Z,101904.41
2022-08-05T08:50:22.323Z,101912.09
2022-08-05T08:52:47.390Z,101916.75
2022-08-05T08:55:32.096Z,101926.41
2022-08-05T08:58:06.826Z,101926.41
2022-08-05T09:00:35.862Z,101923.66
2022-08-05T09:03:05.650Z,101930.22
2022-08-05T09:05:38.282Z,101936.59
2022-08-05T09:08:19.996Z,101938.81
2022-08-05T09:10:53.476Z,101945.13
2022-08-05T09:13:20.235Z,101945.38
2022-08-05T09:15:51.048Z,101938.81
2022-08-05T09:18:17.938Z,101940.72
2022-08-05T09:20:45.875Z,101946.75
2022-08-05T09:23:19.902Z,101946.13
2022-08-05T09:26:01.374Z,101948.03
2022-08-05T09:28:33.405Z,101961.66
2022-08-05T09:31:18.143Z,101966.00
2022-08-05T09:33:59.124Z,101968.97
2022-08-05T09:36:45.758Z,101971.97
2022-08-05T09:39:23.520Z,101979.09
2022-08-05T09:41:59.796Z,101974.09
2022-08-05T09:44:42.310Z,101985.63
2022-08-05T09:47:15.567Z,101988.06
2022-08-05T09:52:44.908Z,101989.72
2022-08-05T09:55:56.198Z,101994.91
2022-08-05T09:58:00.039Z,101988.03
2022-08-05T10:00:27.847Z,101995.97
2022-08-05T10:02:58.072Z,102006.94
2022-08-05T10:05:28.155Z,102003.09
2022-08-05T10:08:35.703Z,102001.19
2022-08-05T10:10:50.487Z,102000.88
2022-08-05T10:13:26.843Z,102006.38
2022-08-05T10:16:00.626Z,102000.59
2022-08-05T10:18:31.943Z,101994.81
2022-08-05T10:21:06.324Z,102002.75
2022-08-05T10:23:59.824Z,101994.53
2022-08-05T10:26:32.368Z,102003.56
2022-08-05T10:28:59.724Z,102008.25
2022-08-05T10:32:54.589Z,102007.97
2022-08-05T10:34:13.764Z,101999.75
2022-08-05T10:36:42.063Z,102007.66
2022-08-05T10:39:24.824Z,102009.59
2022-08-05T10:42:13.461Z,102010.13
2022-08-05T10:44:45.208Z,102012.03
2022-08-05T10:47:26.219Z,102006.28
2022-08-05T10:50:20.526Z,102014.22
2022-08-05T10:53:01.012Z,102012.28
2022-08-05T10:55:28.592Z,102009.53
2022-08-05T10:58:08.564Z,102017.50
2022-08-05T11:00:35.630Z,102022.69
2022-08-05T11:03:23.171Z,102023.81
2022-08-05T11:06:15.532Z,102027.88
2022-08-05T11:09:39.117Z,102033.09
2022-08-05T11:12:24.383Z,102038.28
2022-08-05T11:15:19.353Z,102034.72
2022-08-05T11:17:57.318Z,102038.00
2022-08-05T11:20:47.509Z,102030.31
2022-08-05T11:24:02.722Z,102035.81
2022-08-05T11:26:29.288Z,102030.59
2022-08-05T11:29:11.450Z,102045.72
2022-08-05T11:31:57.454Z,102055.56
2022-08-05T11:34:37.774Z,102052.53
2022-08-05T11:38:14.314Z,102058.03
2022-08-05T11:39:55.408Z,102057.19
2022-08-05T11:42:28.478Z,102060.19
2022-08-05T11:45:03.495Z,102060.19
2022-08-05T11:47:49.582Z,102068.13
2022-08-05T11:50:17.763Z,102076.91
2022-08-05T11:52:48.823Z,102082.41
2022-08-05T11:55:16.202Z,102076.34
2022-08-05T12:00:31.317Z,102075.22
2022-08-05T12:02:58.001Z,102077.66
2022-08-05T12:05:32.201Z,102089.50
2022-08-05T12:08:10.331Z,102079.31
2022-08-05T12:10:45.187Z,102085.31
2022-08-05T12:13:27.899Z,102092.47
2022-08-05T12:16:14.203Z,102089.97
2022-08-05T12:18:42.741Z,102086.09
2022-08-05T12:21:32.232Z,102092.09
2022-08-05T12:24:17.177Z,102094.59
2022-08-05T12:26:52.941Z,102109.13
2022-08-05T12:29:23.004Z,102096.22
2022-08-05T12:31:53.944Z,102109.66
2022-08-05T12:34:26.671Z,102109.06
2022-08-05T12:36:54.662Z,102114.28
2022-08-05T12:39:23.506Z,102116.72
2022-08-05T12:42:02.149Z,102114.81
2022-08-05T12:44:34.058Z,102123.59
2022-08-05T12:47:02.059Z,102126.84
2022-08-05T12:50:04.530Z,102136.44
2022-08-05T12:52:42.233Z,102139.69
2022-08-05T12:55:25.066Z,102141.63
2022-08-05T12:58:50.215Z,102143.81
2022-08-05T13:02:03.552Z,102153.41
2022-08-05T13:03:41.371Z,102156.16
2022-08-05T13:06:12.467Z,102149.84
2022-08-05T13:08:39.988Z,102159.41
2022-08-05T13:11:07.894Z,102149.25
2022-08-05T13:14:05.133Z,102159.97
2022-08-05T13:16:27.728Z,102145.09
2022-08-05T13:18:58.639Z,102156.63
2022-08-05T13:21:28.595Z,102163.75
2022-08-05T13:24:08.757Z,102159.06
2022-08-05T13:26:35.823Z,102168.94
2022-08-05T13:29:02.435Z,102170.59
2022-08-05T13:31:33.826Z,102175.03
2022-08-05T13:34:22.109Z,102183.28
2022-08-05T13:36:50.505Z,102185.19
2022-08-05T13:40:13.197Z,102188.75
2022-08-05T13:42:04.276Z,102199.19
2022-08-05T13:44:32.694Z,102199.44
2022-08-05T13:47:04.930Z,102199.19
2022-08-05T13:49:35.703Z,102200.00
2022-08-05T13:52:16.679Z,102196.94
2022-08-05T13:54:43.215Z,102207.94
2022-08-05T13:57:20.845Z,102215.09
2022-08-05T13:59:57.235Z,102206.56
2022-08-05T14:05:19.616Z,102219.72
2022-08-05T14:08:03.287Z,102216.66
2022-08-05T14:10:35.550Z,102229.59
2022-08-05T14:13:04.163Z,102227.66
2022-08-05T14:18:23.935Z,102237.78
2022-08-05T14:20:54.389Z,102244.13
2022-08-05T14:23:26.416Z,102235.56
2022-08-05T14:25:59.127Z,102241.88
2022-08-05T14:28:30.155Z,102242.44
2022-08-05T14:31:02.772Z,102248.19
2022-08-05T14:33:32.469Z,102265.50
2022-08-05T14:36:20.630Z,102257.81
2022-08-05T14:38:48.205Z,102252.81
2022-08-05T14:44:14.447Z,102264.38
2022-08-05T14:46:47.369Z,102268.47
2022-08-05T14:49:13.887Z,102274.78
2022-08-05T14:51:42.428Z,102269.28
2022-08-05T14:54:29.881Z,102266.22
2022-08-05T14:56:58.465Z,102268.41
2022-08-05T14:59:29.717Z,102270.34
2022-08-05T15:04:44.969Z,102274.13
2022-08-05T15:08:06.390Z,102293.09
2022-08-05T15:10:01.592Z,102283.75
2022-08-05T15:12:41.036Z,102285.38
2022-08-05T15:15:16.915Z,102285.69
2022-08-05T15:18:03.699Z,102288.63
2022-08-05T15:20:32.368Z,102303.50
2022-08-05T15:28:36.189Z,102304.06
2022-08-05T15:34:05.507Z,102296.31
2022-08-05T15:36:36.644Z,102305.94
2022-08-05T15:41:55.410Z,102304.28
2022-08-05T15:47:09.983Z,102308.09
2022-08-05T15:49:40.886Z,102304.53
2022-08-05T15:52:29.622Z,102309.22
2022-08-05T15:55:16.230Z,102296.78
2022-08-05T15:57:43.699Z,102315.78
2022-08-05T16:00:12.313Z,102308.59
2022-08-05T16:02:43.457Z,102302.84
2022-08-05T16:05:17.658Z,102304.16
2022-08-05T16:07:49.212Z,102317.63
2022-08-05T16:10:16.376Z,102316.56
2022-08-05T16:12:50.545Z,102321.25
2022-08-05T16:15:20.133Z,102320.13
2022-08-05T16:17:57.556Z,102321.78
2022-08-05T16:20:33.382Z,102332.78
2022-08-05T16:23:00.923Z,102324.53
2022-08-05T16:25:33.797Z,102326.66
2022-08-05T16:28:18.203Z,102333.53
2022-08-05T16:33:28.541Z,102335.16
2022-08-05T16:36:08.261Z,102332.72
2022-08-05T16:38:35.405Z,102339.84
2022-08-05T16:41:02.632Z,102332.94
2022-08-05T16:43:49.113Z,102349.75
2022-08-05T16:46:23.659Z,102349.75
2022-08-05T16:48:51.480Z,102354.97
2022-08-05T16:51:18.830Z,102345.34
2022-08-05T16:54:05.770Z,102358.31
2022-08-05T16:59:19.004Z,102364.28
2022-08-05T17:01:53.057Z,102356.31
2022-08-05T17:04:26.992Z,102366.50
2022-08-05T17:06:55.427Z,102356.59
2022-08-05T17:09:22.942Z,102361.84
2022-08-05T17:17:14.952Z,102379.97
2022-08-05T17:19:45.544Z,102377.22
2022-08-05T17:22:25.480Z,102384.34
2022-08-05T17:25:02.206Z,102375.28
2022-08-05T17:27:48.841Z,102375.59
2022-08-05T17:30:28.275Z,102377.72
2022-08-05T17:32:55.639Z,102378.56
2022-08-05T17:35:22.291Z,102379.97
2022-08-05T17:37:49.042Z,102381.59
2022-08-05T17:40:18.712Z,102390.41
2022-08-05T17:42:50.899Z,102381.09
2022-08-05T17:48:00.895Z,102389.56
2022-08-05T17:50:30.484Z,102390.41
2022-08-05T17:53:11.628Z,102387.66
2022-08-05T17:55:40.133Z,102387.66
2022-08-05T17:58:11.125Z,102382.41
2022-08-05T18:00:44.970Z,102388.75
2022-08-05T18:03:24.125Z,102399.25
2022-08-05T18:06:04.590Z,102391.25
2022-08-05T18:08:33.550Z,102390.97
2022-08-05T18:11:00.592Z,102401.69
2022-08-05T18:13:36.415Z,102397.00
2022-08-05T18:16:04.129Z,102403.09
2022-08-05T18:18:33.750Z,102401.16
2022-08-05T18:21:13.361Z,102398.69
2022-08-05T18:23:47.265Z,102395.66
2022-08-05T18:26:13.883Z,102411.38
2022-08-05T18:28:44.774Z,102413.28
2022-08-05T18:33:59.583Z,102406.72
2022-08-05T18:36:28.214Z,102412.75
2022-08-05T18:38:55.318Z,102415.50
2022-08-05T18:41:55.077Z,102429.28
2022-08-05T18:44:33.307Z,102421.84
2022-08-05T18:47:03.816Z,102429.53
2022-08-05T18:52:33.565Z,102427.91
2022-08-05T18:55:06.180Z,102432.91
2022-08-05T18:57:49.908Z,102432.06
2022-08-05T19:03:04.274Z,102432.06
2022-08-05T19:06:12.764Z,102429.31
2022-08-05T19:08:17.567Z,102435.66
2022-08-05T19:10:45.548Z,102431.84
2022-08-05T19:13:15.907Z,102438.69
2022-08-05T19:15:57.443Z,102439.50
2022-08-05T19:18:26.992Z,102453.00
2022-08-05T19:20:54.309Z,102453.00
2022-08-05T19:24:03.604Z,102452.72
2022-08-05T19:26:09.534Z,102443.94
2022-08-05T19:28:42.197Z,102453.00
2022-08-05T19:31:22.991Z,102453.31
2022-08-05T19:33:56.305Z,102459.34
2022-08-05T19:36:29.277Z,102457.41
2022-08-05T19:38:58.874Z,102462.91
2022-08-05T19:44:13.479Z,102463.47
2022-08-05T19:46:41.086Z,102462.91
2022-08-05T19:49:16.458Z,102472.00
2022-08-05T19:52:13.079Z,102473.09
2022-08-05T19:54:40.540Z,102482.19
2022-08-05T20:00:02.098Z,102488.25
2022-08-05T20:02:22.211Z,102490.19
2022-08-05T20:04:50.820Z,102502.84
2022-08-05T20:07:48.050Z,102496.50
2022-08-05T20:10:11.442Z,102496.00
2022-08-05T20:12:39.852Z,102492.41
2022-08-05T20:15:15.890Z,102498.16
2022-08-05T20:18:09.665Z,102506.69
2022-08-05T20:20:38.044Z,102509.44
2022-08-05T20:23:05.415Z,102509.44
2022-08-05T20:28:14.545Z,102514.94
2022-08-05T20:30:41.362Z,102517.69
2022-08-05T20:33:08.735Z,102529.31
2022-08-05T20:35:40.661Z,102519.94
2022-08-05T20:38:14.451Z,102530.13
2022-08-05T20:40:50.526Z,102532.06
2022-08-05T20:43:17.554Z,102542.22
2022-08-05T20:46:04.241Z,102540.31
2022-08-05T20:48:30.861Z,102542.50
2022-08-05T20:50:57.396Z,102542.50
2022-08-05T20:53:37.068Z,102538.94
2022-08-05T20:56:09.698Z,102540.88
2022-08-05T20:58:36.935Z,102542.50
2022-08-05T21:01:04.563Z,102536.47
2022-08-05T21:03:34.743Z,102548.56
2022-08-05T21:06:01.870Z,102549.41
2022-08-05T21:08:41.684Z,102547.75
2022-08-05T21:12:07.703Z,102543.63
2022-08-05T21:14:01.534Z,102551.63
2022-08-05T21:16:29.849Z,102545.81
2022-08-05T21:19:00.154Z,102545.31
2022-08-05T21:21:43.901Z,102542.81
2022-08-05T21:26:58.683Z,102561.81
2022-08-05T21:29:31.922Z,102561.81
2022-08-05T21:31:59.536Z,102565.66
2022-08-05T21:34:26.057Z,102566.47
2022-08-05T21:36:54.973Z,102567.88
2022-08-05T21:44:44.813Z,102562.94
2022-08-05T21:47:32.885Z,102561.56
2022-08-05T21:50:01.280Z,102570.91
2022-08-05T21:52:36.168Z,102572.56
2022-08-05T21:55:13.834Z,102565.44
2022-08-05T21:57:42.613Z,102570.66
2022-08-05T22:00:11.752Z,102567.06
2022-08-05T22:02:38.958Z,102570.41
2022-08-05T22:05:06.088Z,102565.75
2022-08-05T22:07:54.199Z,102567.94
2022-08-05T22:10:26.757Z,102576.19
2022-08-05T22:14:05.862Z,102582.81
2022-08-05T22:16:01.097Z,102574.25
2022-08-05T22:18:34.443Z,102582.50
2022-08-05T22:21:03.981Z,102576.47
2022-08-05T22:24:02.299Z,102582.81
2022-08-05T22:26:49.757Z,102579.50
2022-08-05T22:29:17.446Z,102577.56
2022-08-05T22:31:45.737Z,102574.81
2022-08-05T22:34:28.199Z,102584.47
2022-08-05T22:36:58.425Z,102582.00
2022-08-05T22:39:30.977Z,102570.16
2022-08-05T22:42:11.767Z,102577.31
2022-08-05T22:44:53.475Z,102587.50
2022-08-05T22:47:29.285Z,102594.09
2022-08-05T22:50:21.041Z,102598.78
2022-08-05T22:52:44.613Z,102605.09
2022-08-05T22:55:18.944Z,102602.66
2022-08-05T22:57:47.196Z,102610.09
2022-08-05T23:00:17.757Z,102611.16
2022-08-05T23:02:49.089Z,102610.66
2022-08-05T23:05:16.565Z,102621.09
2022-08-05T23:07:48.262Z,102610.91
2022-08-05T23:10:20.174Z,102607.59
2022-08-05T23:12:54.361Z,102617.22
2022-08-05T23:15:26.982Z,102615.31
2022-08-05T23:18:00.944Z,102616.41
2022-08-05T23:20:30.311Z,102617.53
2022-08-05T23:23:08.068Z,102630.72
2022-08-05T23:25:52.294Z,102622.19
2022-08-05T23:28:22.052Z,102631.28
2022-08-05T23:34:04.060Z,102632.66
2022-08-05T23:36:16.339Z,102638.16
2022-08-05T23:38:43.505Z,102638.16
2022-08-05T23:41:10.591Z,102634.31
2022-08-05T23:44:06.379Z,102646.97
2022-08-05T23:46:24.215Z,102643.69
2022-08-05T23:51:55.214Z,102657.72
2022-08-05T23:54:30.284Z,102658.78
2022-08-05T23:57:03.409Z,102656.88
